sensor_id;sensor_type;location;lat;lon;timestamp;pressure;altitude;pressure_sealevel;temperature;humidity
6136;BME280;24008;42.664;23.372;2024-03-08T00:00:05;94753.41;;;4.71;100.00
6136;BME280;24008;42.664;23.372;2024-03-08T00:02:37;94755.94;;;4.71;100.00
6136;BME280;24008;42.664;23.372;2024-03-08T00:05:07;94755.94;;;4.71;100.00
6136;BME280;24008;42.664;23.372;2024-03-08T00:08:00;94683.56;;;4.32;100.00
6136;BME280;24008;42.664;23.372;2024-03-08T00:10:28;94753.91;;;4.76;100.00
6136;BME280;24008;42.664;23.372;2024-03-08T00:12:55;94735.41;;;4.63;100.00
6136;BME280;24008;42.664;23.372;2024-03-08T00:15:23;94754.13;;;4.73;100.00
6136;BME280;24008;42.664;23.372;2024-03-08T00:17:50;94753.81;;;4.78;100.00
6136;BME280;24008;42.664;23.372;2024-03-08T00:20:18;94749.06;;;4.73;100.00
6136;BME280;24008;42.664;23.372;2024-03-08T00:22:44;94684.78;;;4.26;100.00
6136;BME280;24008;42.664;23.372;2024-03-08T00:25:11;94624.63;;;3.93;100.00
6136;BME280;24008;42.664;23.372;2024-03-08T00:27:38;94748.06;;;4.63;100.00
6136;BME280;24008;42.664;23.372;2024-03-08T00:30:06;94730.47;;;4.49;100.00
6136;BME280;24008;42.664;23.372;2024-03-08T00:32:33;94715.91;;;4.40;100.00
6136;BME280;24008;42.664;23.372;2024-03-08T00:34:59;94438.13;;;2.62;100.00
6136;BME280;24008;42.664;23.372;2024-03-08T00:37:28;94740.91;;;4.57;100.00
6136;BME280;24008;42.664;23.372;2024-03-08T00:39:55;94511.81;;;3.05;100.00
6136;BME280;24008;42.664;23.372;2024-03-08T00:42:40;94666.19;;;4.02;100.00
6136;BME280;24008;42.664;23.372;2024-03-08T00:45:29;94634.84;;;3.92;100.00
6136;BME280;24008;42.664;23.372;2024-03-08T00:48:18;94627.06;;;3.95;100.00
6136;BME280;24008;42.664;23.372;2024-03-08T00:51:06;94721.78;;;4.53;100.00
6136;BME280;24008;42.664;23.372;2024-03-08T00:53:54;94743.22;;;4.47;100.00
6136;BME280;24008;42.664;23.372;2024-03-08T00:56:41;94723.31;;;4.43;100.00
6136;BME280;24008;42.664;23.372;2024-03-08T00:59:17;94677.91;;;4.16;100.00
6136;BME280;24008;42.664;23.372;2024-03-08T01:01:44;94715.91;;;4.40;100.00
6136;BME280;24008;42.664;23.372;2024-03-08T01:04:11;94706.00;;;4.37;100.00
6136;BME280;24008;42.664;23.372;2024-03-08T01:06:37;94730.31;;;4.26;100.00
6136;BME280;24008;42.664;23.372;2024-03-08T01:09:05;94706.72;;;4.26;100.00
6136;BME280;24008;42.664;23.372;2024-03-08T01:11:33;94705.00;;;4.26;100.00
6136;BME280;24008;42.664;23.372;2024-03-08T01:14:00;94705.91;;;4.25;100.00
6136;BME280;24008;42.664;23.372;2024-03-08T01:16:26;94709.47;;;4.23;100.00
6136;BME280;24008;42.664;23.372;2024-03-08T01:18:53;94462.75;;;2.71;100.00
6136;BME280;24008;42.664;23.372;2024-03-08T01:21:20;94629.19;;;3.76;100.00
6136;BME280;24008;42.664;23.372;2024-03-08T01:23:47;94529.00;;;3.13;100.00
6136;BME280;24008;42.664;23.372;2024-03-08T01:26:15;94703.81;;;4.19;100.00
6136;BME280;24008;42.664;23.372;2024-03-08T01:28:42;94712.94;;;4.22;100.00
6136;BME280;24008;42.664;23.372;2024-03-08T01:31:09;94623.84;;;3.80;100.00
6136;BME280;24008;42.664;23.372;2024-03-08T01:33:35;94719.00;;;4.19;100.00
6136;BME280;24008;42.664;23.372;2024-03-08T01:36:02;94692.06;;;4.18;100.00
6136;BME280;24008;42.664;23.372;2024-03-08T01:38:29;94675.09;;;3.95;100.00
6136;BME280;24008;42.664;23.372;2024-03-08T01:40:55;94694.50;;;4.20;100.00
6136;BME280;24008;42.664;23.372;2024-03-08T01:43:25;94670.84;;;4.08;100.00
6136;BME280;24008;42.664;23.372;2024-03-08T01:45:54;94647.59;;;3.90;100.00
6136;BME280;24008;42.664;23.372;2024-03-08T01:48:21;94575.03;;;3.42;100.00
6136;BME280;24008;42.664;23.372;2024-03-08T01:50:49;94658.50;;;3.91;100.00
6136;BME280;24008;42.664;23.372;2024-03-08T01:53:17;94698.97;;;4.16;100.00
6136;BME280;24008;42.664;23.372;2024-03-08T01:55:45;94689.03;;;4.13;100.00
6136;BME280;24008;42.664;23.372;2024-03-08T01:58:13;94694.53;;;4.07;100.00
6136;BME280;24008;42.664;23.372;2024-03-08T02:00:43;94626.09;;;3.59;100.00
6136;BME280;24008;42.664;23.372;2024-03-08T02:03:10;94660.84;;;3.94;100.00
6136;BME280;24008;42.664;23.372;2024-03-08T02:05:38;94684.31;;;4.09;100.00
6136;BME280;24008;42.664;23.372;2024-03-08T02:08:07;94684.81;;;4.01;100.00
6136;BME280;24008;42.664;23.372;2024-03-08T02:10:38;94711.09;;;4.11;100.00
6136;BME280;24008;42.664;23.372;2024-03-08T02:13:04;94679.94;;;4.11;100.00
6136;BME280;24008;42.664;23.372;2024-03-08T02:15:54;94648.22;;;3.94;100.00
6136;BME280;24008;42.664;23.372;2024-03-08T02:18:22;94683.16;;;4.13;100.00
6136;BME280;24008;42.664;23.372;2024-03-08T02:20:50;94664.38;;;4.04;100.00
6136;BME280;24008;42.664;23.372;2024-03-08T02:23:18;94610.00;;;3.73;100.00
6136;BME280;24008;42.664;23.372;2024-03-08T02:25:44;94685.41;;;4.17;100.00
6136;BME280;24008;42.664;23.372;2024-03-08T02:28:12;94611.31;;;3.66;100.00
6136;BME280;24008;42.664;23.372;2024-03-08T02:30:39;94709.06;;;4.16;100.00
6136;BME280;24008;42.664;23.372;2024-03-08T02:33:06;94680.34;;;4.17;100.00
6136;BME280;24008;42.664;23.372;2024-03-08T02:35:32;94518.00;;;3.14;100.00
6136;BME280;24008;42.664;23.372;2024-03-08T02:38:01;94624.56;;;3.82;100.00
6136;BME280;24008;42.664;23.372;2024-03-08T02:40:29;94670.34;;;4.03;100.00
6136;BME280;24008;42.664;23.372;2024-03-08T02:42:58;94698.22;;;4.27;100.00
6136;BME280;24008;42.664;23.372;2024-03-08T02:45:25;94698.94;;;4.29;100.00
6136;BME280;24008;42.664;23.372;2024-03-08T02:47:51;94697.75;;;4.22;100.00
6136;BME280;24008;42.664;23.372;2024-03-08T02:50:18;94507.38;;;2.96;100.00
6136;BME280;24008;42.664;23.372;2024-03-08T02:52:45;94489.19;;;2.91;100.00
6136;BME280;24008;42.664;23.372;2024-03-08T02:55:13;94655.69;;;3.83;100.00
6136;BME280;24008;42.664;23.372;2024-03-08T02:57:41;94698.75;;;4.19;100.00
6136;BME280;24008;42.664;23.372;2024-03-08T03:00:09;94542.91;;;3.18;100.00
6136;BME280;24008;42.664;23.372;2024-03-08T03:02:36;94694.44;;;4.09;100.00
6136;BME280;24008;42.664;23.372;2024-03-08T03:05:04;94710.28;;;4.11;100.00
6136;BME280;24008;42.664;23.372;2024-03-08T03:07:31;94701.78;;;4.12;100.00
6136;BME280;24008;42.664;23.372;2024-03-08T03:09:58;94687.66;;;3.84;100.00
6136;BME280;24008;42.664;23.372;2024-03-08T03:12:27;94500.50;;;2.85;100.00
6136;BME280;24008;42.664;23.372;2024-03-08T03:14:54;94538.28;;;3.00;100.00
6136;BME280;24008;42.664;23.372;2024-03-08T03:17:21;94669.53;;;3.65;100.00
6136;BME280;24008;42.664;23.372;2024-03-08T03:19:48;94716.16;;;3.98;100.00
6136;BME280;24008;42.664;23.372;2024-03-08T03:22:15;94717.47;;;3.91;100.00
6136;BME280;24008;42.664;23.372;2024-03-08T03:24:42;94711.72;;;3.89;100.00
6136;BME280;24008;42.664;23.372;2024-03-08T03:27:08;94717.00;;;3.86;100.00
6136;BME280;24008;42.664;23.372;2024-03-08T03:29:38;94728.59;;;3.89;100.00
6136;BME280;24008;42.664;23.372;2024-03-08T03:32:05;94720.44;;;3.85;100.00
6136;BME280;24008;42.664;23.372;2024-03-08T03:34:33;94655.06;;;3.41;100.00
6136;BME280;24008;42.664;23.372;2024-03-08T03:37:01;94689.03;;;3.62;100.00
6136;BME280;24008;42.664;23.372;2024-03-08T03:39:28;94652.06;;;3.36;100.00
6136;BME280;24008;42.664;23.372;2024-03-08T03:41:57;94539.63;;;2.66;100.00
6136;BME280;24008;42.664;23.372;2024-03-08T03:44:24;94698.97;;;3.66;100.00
6136;BME280;24008;42.664;23.372;2024-03-08T03:46:52;94729.22;;;3.92;100.00
6136;BME280;24008;42.664;23.372;2024-03-08T03:49:18;94698.97;;;3.66;100.00
6136;BME280;24008;42.664;23.372;2024-03-08T03:51:45;94708.25;;;3.65;100.00
6136;BME280;24008;42.664;23.372;2024-03-08T03:54:12;94679.44;;;3.42;100.00
6136;BME280;24008;42.664;23.372;2024-03-08T03:56:39;94676.91;;;3.42;100.00
6136;BME280;24008;42.664;23.372;2024-03-08T03:59:06;94710.69;;;3.67;100.00
6136;BME280;24008;42.664;23.372;2024-03-08T04:01:32;94738.63;;;3.90;100.00
6136;BME280;24008;42.664;23.372;2024-03-08T04:04:00;94709.41;;;3.74;100.00
6136;BME280;24008;42.664;23.372;2024-03-08T04:06:27;94711.94;;;3.74;100.00
6136;BME280;24008;42.664;23.372;2024-03-08T04:08:54;94687.31;;;3.50;100.00
6136;BME280;24008;42.664;23.372;2024-03-08T04:11:20;94761.28;;;3.92;100.00
6136;BME280;24008;42.664;23.372;2024-03-08T04:13:47;94756.22;;;3.92;100.00
6136;BME280;24008;42.664;23.372;2024-03-08T04:16:14;94754.59;;;3.91;100.00
6136;BME280;24008;42.664;23.372;2024-03-08T04:18:41;94755.31;;;3.93;100.00
6136;BME280;24008;42.664;23.372;2024-03-08T04:21:09;94703.00;;;3.55;100.00
6136;BME280;24008;42.664;23.372;2024-03-08T04:23:36;94744.06;;;3.72;100.00
6136;BME280;24008;42.664;23.372;2024-03-08T04:26:03;94772.09;;;3.94;100.00
6136;BME280;24008;42.664;23.372;2024-03-08T04:28:32;94688.81;;;3.40;100.00
6136;BME280;24008;42.664;23.372;2024-03-08T04:30:58;94713.00;;;3.44;100.00
6136;BME280;24008;42.664;23.372;2024-03-08T04:33:26;94785.53;;;3.82;100.00
6136;BME280;24008;42.664;23.372;2024-03-08T04:35:53;94561.06;;;2.46;100.00
6136;BME280;24008;42.664;23.372;2024-03-08T04:38:21;94756.19;;;3.67;99.60
6136;BME280;24008;42.664;23.372;2024-03-08T04:40:48;94784.72;;;3.81;99.64
6136;BME280;24008;42.664;23.372;2024-03-08T04:43:15;94785.72;;;3.79;99.68
6136;BME280;24008;42.664;23.372;2024-03-08T04:45:43;94782.28;;;3.80;99.81
6136;BME280;24008;42.664;23.372;2024-03-08T04:48:10;94787.34;;;3.80;99.48
6136;BME280;24008;42.664;23.372;2024-03-08T04:50:38;94664.41;;;3.01;100.00
6136;BME280;24008;42.664;23.372;2024-03-08T04:53:05;94681.91;;;3.17;100.00
6136;BME280;24008;42.664;23.372;2024-03-08T04:55:34;94783.50;;;3.87;99.74
6136;BME280;24008;42.664;23.372;2024-03-08T04:58:03;94715.91;;;3.38;99.95
6136;BME280;24008;42.664;23.372;2024-03-08T05:00:31;94794.66;;;3.84;99.49
6136;BME280;24008;42.664;23.372;2024-03-08T05:02:58;94788.78;;;3.84;98.96
6136;BME280;24008;42.664;23.372;2024-03-08T05:05:24;94655.50;;;2.96;98.71
6136;BME280;24008;42.664;23.372;2024-03-08T05:07:51;94768.00;;;3.66;97.83
6136;BME280;24008;42.664;23.372;2024-03-08T05:10:19;94740.28;;;3.52;97.87
6136;BME280;24008;42.664;23.372;2024-03-08T05:12:47;94552.47;;;2.36;97.84
6136;BME280;24008;42.664;23.372;2024-03-08T05:15:13;94533.44;;;2.17;97.75
6136;BME280;24008;42.664;23.372;2024-03-08T05:17:40;94813.47;;;3.93;97.87
6136;BME280;24008;42.664;23.372;2024-03-08T05:20:08;94810.84;;;3.94;97.65
6136;BME280;24008;42.664;23.372;2024-03-08T05:22:37;94843.41;;;3.99;97.12
6136;BME280;24008;42.664;23.372;2024-03-08T05:25:05;94816.53;;;3.98;97.16
6136;BME280;24008;42.664;23.372;2024-03-08T05:27:34;94814.09;;;3.96;96.88
6136;BME280;24008;42.664;23.372;2024-03-08T05:30:03;94826.00;;;3.94;97.02
6136;BME280;24008;42.664;23.372;2024-03-08T05:32:30;94783.06;;;3.68;98.54
6136;BME280;24008;42.664;23.372;2024-03-08T05:34:57;94830.25;;;3.94;98.27
6136;BME280;24008;42.664;23.372;2024-03-08T05:37:23;94778.91;;;3.54;99.62
6136;BME280;24008;42.664;23.372;2024-03-08T05:39:50;94780.75;;;3.65;100.00
6136;BME280;24008;42.664;23.372;2024-03-08T05:42:17;94841.59;;;4.01;100.00
6136;BME280;24008;42.664;23.372;2024-03-08T05:44:43;94843.41;;;3.99;99.67
6136;BME280;24008;42.664;23.372;2024-03-08T05:47:11;94845.44;;;4.07;99.34
6136;BME280;24008;42.664;23.372;2024-03-08T05:49:39;94856.38;;;4.07;99.60
6136;BME280;24008;42.664;23.372;2024-03-08T05:52:06;94859.38;;;3.99;99.58
6136;BME280;24008;42.664;23.372;2024-03-08T05:54:33;94870.41;;;3.86;100.00
6136;BME280;24008;42.664;23.372;2024-03-08T05:56:59;94725.50;;;2.79;100.00
6136;BME280;24008;42.664;23.372;2024-03-08T05:59:26;94831.31;;;3.38;100.00
6136;BME280;24008;42.664;23.372;2024-03-08T06:01:53;94863.50;;;3.48;100.00
6136;BME280;24008;42.664;23.372;2024-03-08T06:04:21;94870.78;;;3.53;100.00
6136;BME280;24008;42.664;23.372;2024-03-08T06:06:48;94877.19;;;3.58;100.00
6136;BME280;24008;42.664;23.372;2024-03-08T06:09:17;94833.97;;;3.22;100.00
6136;BME280;24008;42.664;23.372;2024-03-08T06:11:48;94848.94;;;3.25;100.00
6136;BME280;24008;42.664;23.372;2024-03-08T06:14:15;94887.31;;;3.44;100.00
6136;BME280;24008;42.664;23.372;2024-03-08T06:16:43;94878.69;;;3.34;100.00
6136;BME280;24008;42.664;23.372;2024-03-08T06:19:10;94813.97;;;3.05;100.00
6136;BME280;24008;42.664;23.372;2024-03-08T06:21:38;94615.53;;;1.66;100.00
6136;BME280;24008;42.664;23.372;2024-03-08T06:24:06;94892.19;;;3.47;100.00
6136;BME280;24008;42.664;23.372;2024-03-08T06:26:33;94795.97;;;2.97;100.00
6136;BME280;24008;42.664;23.372;2024-03-08T06:28:59;94795.56;;;3.03;100.00
6136;BME280;24008;42.664;23.372;2024-03-08T06:31:26;94894.28;;;3.68;100.00
6136;BME280;24008;42.664;23.372;2024-03-08T06:33:53;94897.44;;;3.71;100.00
6136;BME280;24008;42.664;23.372;2024-03-08T06:36:20;94860.66;;;3.53;100.00
6136;BME280;24008;42.664;23.372;2024-03-08T06:38:49;94904.22;;;3.71;100.00
6136;BME280;24008;42.664;23.372;2024-03-08T06:41:16;94903.81;;;3.77;100.00
6136;BME280;24008;42.664;23.372;2024-03-08T06:43:43;94853.53;;;3.59;100.00
6136;BME280;24008;42.664;23.372;2024-03-08T06:46:10;94914.88;;;3.88;100.00
6136;BME280;24008;42.664;23.372;2024-03-08T06:48:38;94863.41;;;3.62;100.00
6136;BME280;24008;42.664;23.372;2024-03-08T06:51:05;94829.53;;;3.52;99.53
6136;BME280;24008;42.664;23.372;2024-03-08T06:53:32;94831.19;;;3.66;99.56
6136;BME280;24008;42.664;23.372;2024-03-08T06:56:02;94844.78;;;3.78;99.26
6136;BME280;24008;42.664;23.372;2024-03-08T06:58:29;94677.19;;;2.85;98.29
6136;BME280;24008;42.664;23.372;2024-03-08T07:00:55;94904.88;;;4.39;95.78
6136;BME280;24008;42.664;23.372;2024-03-08T07:03:25;94912.38;;;4.41;92.54
6136;BME280;24008;42.664;23.372;2024-03-08T07:05:52;94915.63;;;4.43;91.42
6136;BME280;24008;42.664;23.372;2024-03-08T07:08:20;94846.34;;;4.06;90.22
6136;BME280;24008;42.664;23.372;2024-03-08T07:10:48;94622.34;;;2.75;89.93
6136;BME280;24008;42.664;23.372;2024-03-08T07:13:17;94659.19;;;3.17;88.73
6136;BME280;24008;42.664;23.372;2024-03-08T07:15:44;94778.25;;;3.90;88.19
6136;BME280;24008;42.664;23.372;2024-03-08T07:18:11;94916.88;;;4.88;87.51
6136;BME280;24008;42.664;23.372;2024-03-08T07:20:40;94874.03;;;4.72;87.44
6136;BME280;24008;42.664;23.372;2024-03-08T07:23:07;94906.22;;;4.95;86.62
6136;BME280;24008;42.664;23.372;2024-03-08T07:25:36;94917.16;;;5.08;84.80
6136;BME280;24008;42.664;23.372;2024-03-08T07:28:04;94927.09;;;5.12;84.93
6136;BME280;24008;42.664;23.372;2024-03-08T07:30:33;94915.84;;;5.16;84.37
6136;BME280;24008;42.664;23.372;2024-03-08T07:33:21;94917.22;;;5.20;83.99
6136;BME280;24008;42.664;23.372;2024-03-08T07:35:48;94880.50;;;5.01;83.21
6136;BME280;24008;42.664;23.372;2024-03-08T07:38:15;94918.53;;;5.38;82.71
6136;BME280;24008;42.664;23.372;2024-03-08T07:40:42;94888.03;;;5.27;82.87
6136;BME280;24008;42.664;23.372;2024-03-08T07:43:11;94901.28;;;5.43;82.41
6136;BME280;24008;42.664;23.372;2024-03-08T07:45:39;94930.63;;;5.58;81.43
6136;BME280;24008;42.664;23.372;2024-03-08T07:48:07;94927.91;;;5.61;81.95
6136;BME280;24008;42.664;23.372;2024-03-08T07:50:36;94904.41;;;5.47;81.98
6136;BME280;24008;42.664;23.372;2024-03-08T07:53:02;94930.03;;;5.67;82.26
6136;BME280;24008;42.664;23.372;2024-03-08T07:55:31;94898.59;;;5.57;82.09
6136;BME280;24008;42.664;23.372;2024-03-08T07:57:58;94663.66;;;4.15;80.96
6136;BME280;24008;42.664;23.372;2024-03-08T08:00:25;94926.47;;;5.94;81.37
6136;BME280;24008;42.664;23.372;2024-03-08T08:02:54;94860.13;;;5.39;80.19
6136;BME280;24008;42.664;23.372;2024-03-08T08:05:21;94931.16;;;5.87;80.79
6136;BME280;24008;42.664;23.372;2024-03-08T08:07:47;94724.16;;;4.67;80.26
6136;BME280;24008;42.664;23.372;2024-03-08T08:10:15;94883.28;;;5.83;81.19
6136;BME280;24008;42.664;23.372;2024-03-08T08:12:44;94921.28;;;6.19;80.28
6136;BME280;24008;42.664;23.372;2024-03-08T08:15:31;94878.56;;;6.02;80.03
6136;BME280;24008;42.664;23.372;2024-03-08T08:18:01;94920.44;;;6.42;79.24
6136;BME280;24008;42.664;23.372;2024-03-08T08:20:28;94738.69;;;5.36;79.91
6136;BME280;24008;42.664;23.372;2024-03-08T08:22:55;94872.47;;;6.39;79.81
6136;BME280;24008;42.664;23.372;2024-03-08T08:25:22;94885.59;;;6.44;78.60
6136;BME280;24008;42.664;23.372;2024-03-08T08:27:50;94819.06;;;6.17;76.49
6136;BME280;24008;42.664;23.372;2024-03-08T08:30:19;94925.88;;;7.06;75.39
6136;BME280;24008;42.664;23.372;2024-03-08T08:32:46;94928.19;;;7.09;73.73
6136;BME280;24008;42.664;23.372;2024-03-08T08:35:15;94907.66;;;7.12;72.75
6136;BME280;24008;42.664;23.372;2024-03-08T08:37:43;94925.38;;;7.68;72.37
6136;BME280;24008;42.664;23.372;2024-03-08T08:40:11;94926.31;;;8.10;71.35
6136;BME280;24008;42.664;23.372;2024-03-08T08:42:40;94869.94;;;8.15;69.66
6136;BME280;24008;42.664;23.372;2024-03-08T08:45:07;94926.84;;;8.78;67.49
6136;BME280;24008;42.664;23.372;2024-03-08T08:47:35;94760.88;;;7.57;66.67
6136;BME280;24008;42.664;23.372;2024-03-08T08:50:22;94919.78;;;8.28;65.97
6136;BME280;24008;42.664;23.372;2024-03-08T08:52:50;94920.13;;;8.24;66.32
6136;BME280;24008;42.664;23.372;2024-03-08T08:55:16;94915.78;;;8.47;66.43
6136;BME280;24008;42.664;23.372;2024-03-08T08:57:46;94929.09;;;8.92;66.19
6136;BME280;24008;42.664;23.372;2024-03-08T09:00:13;94917.63;;;9.37;63.54
6136;BME280;24008;42.664;23.372;2024-03-08T09:02:41;94917.06;;;9.74;61.62
6136;BME280;24008;42.664;23.372;2024-03-08T09:05:08;94911.22;;;10.31;60.62
6136;BME280;24008;42.664;23.372;2024-03-08T09:07:36;94881.69;;;10.95;58.04
6136;BME280;24008;42.664;23.372;2024-03-08T09:10:03;94691.47;;;10.41;57.88
6136;BME280;24008;42.664;23.372;2024-03-08T09:12:30;94882.75;;;11.84;55.94
6136;BME280;24008;42.664;23.372;2024-03-08T09:14:58;94911.84;;;12.10;55.28
6136;BME280;24008;42.664;23.372;2024-03-08T09:17:24;94908.78;;;11.52;51.25
6136;BME280;24008;42.664;23.372;2024-03-08T09:19:51;94915.91;;;11.85;52.58
6136;BME280;24008;42.664;23.372;2024-03-08T09:22:17;94903.81;;;12.84;50.55
6136;BME280;24008;42.664;23.372;2024-03-08T09:24:45;94899.75;;;13.59;48.83
6136;BME280;24008;42.664;23.372;2024-03-08T09:27:12;94865.44;;;13.77;46.84
6136;BME280;24008;42.664;23.372;2024-03-08T09:29:39;94900.50;;;14.02;47.82
6136;BME280;24008;42.664;23.372;2024-03-08T09:32:06;94881.69;;;13.43;47.87
6136;BME280;24008;42.664;23.372;2024-03-08T09:34:32;94816.31;;;12.00;49.63
6136;BME280;24008;42.664;23.372;2024-03-08T09:37:00;94909.22;;;11.75;52.79
6136;BME280;24008;42.664;23.372;2024-03-08T09:39:29;94909.88;;;11.22;53.56
6136;BME280;24008;42.664;23.372;2024-03-08T09:41:57;94913.47;;;10.15;55.00
6136;BME280;24008;42.664;23.372;2024-03-08T09:44:24;94845.53;;;9.55;56.29
6136;BME280;24008;42.664;23.372;2024-03-08T09:46:51;94900.03;;;9.44;59.30
6136;BME280;24008;42.664;23.372;2024-03-08T09:49:18;94864.50;;;9.12;59.52
6136;BME280;24008;42.664;23.372;2024-03-08T09:51:46;94906.22;;;9.42;60.07
6136;BME280;24008;42.664;23.372;2024-03-08T09:54:13;94911.28;;;9.91;59.11
6136;BME280;24008;42.664;23.372;2024-03-08T09:56:43;94871.78;;;9.76;57.72
6136;BME280;24008;42.664;23.372;2024-03-08T09:59:11;94907.72;;;10.61;58.56
6136;BME280;24008;42.664;23.372;2024-03-08T10:02:07;94913.41;;;11.02;55.04
6136;BME280;24008;42.664;23.372;2024-03-08T10:04:40;94900.13;;;10.89;53.97
6136;BME280;24008;42.664;23.372;2024-03-08T10:07:07;94862.53;;;10.62;54.03
6136;BME280;24008;42.664;23.372;2024-03-08T10:09:34;94907.06;;;10.59;54.97
6136;BME280;24008;42.664;23.372;2024-03-08T10:12:01;94913.47;;;10.05;56.01
6136;BME280;24008;42.664;23.372;2024-03-08T10:14:30;94670.34;;;8.27;57.41
6136;BME280;24008;42.664;23.372;2024-03-08T10:16:57;94875.31;;;9.35;57.71
6136;BME280;24008;42.664;23.372;2024-03-08T10:19:25;94901.19;;;9.70;58.43
6136;BME280;24008;42.664;23.372;2024-03-08T10:21:52;94836.03;;;10.53;56.86
6136;BME280;24008;42.664;23.372;2024-03-08T10:24:19;94871.53;;;11.95;53.33
6136;BME280;24008;42.664;23.372;2024-03-08T10:26:46;94867.19;;;13.00;49.70
6136;BME280;24008;42.664;23.372;2024-03-08T10:29:13;94872.53;;;13.83;45.71
6136;BME280;24008;42.664;23.372;2024-03-08T10:31:44;94865.53;;;14.17;44.84
6136;BME280;24008;42.664;23.372;2024-03-08T10:34:10;94811.22;;;14.04;44.91
6136;BME280;24008;42.664;23.372;2024-03-08T10:36:38;94865.84;;;14.38;42.97
6136;BME280;24008;42.664;23.372;2024-03-08T10:39:14;94889.63;;;14.16;43.27
6136;BME280;24008;42.664;23.372;2024-03-08T10:41:49;94811.72;;;13.33;43.02
6136;BME280;24008;42.664;23.372;2024-03-08T10:44:31;94891.81;;;13.95;45.36
6136;BME280;24008;42.664;23.372;2024-03-08T10:47:03;94883.09;;;13.63;46.75
6136;BME280;24008;42.664;23.372;2024-03-08T10:49:38;94859.53;;;12.56;47.06
6136;BME280;24008;42.664;23.372;2024-03-08T10:52:05;94836.25;;;11.61;48.34
6136;BME280;24008;42.664;23.372;2024-03-08T10:54:34;94842.38;;;10.96;49.95
6136;BME280;24008;42.664;23.372;2024-03-08T10:57:05;94825.47;;;10.19;52.19
6136;BME280;24008;42.664;23.372;2024-03-08T10:59:34;94872.91;;;10.31;55.78
6136;BME280;24008;42.664;23.372;2024-03-08T11:02:03;94854.88;;;9.85;55.04
6136;BME280;24008;42.664;23.372;2024-03-08T11:04:31;94876.22;;;10.03;56.10
6136;BME280;24008;42.664;23.372;2024-03-08T11:07:00;94826.44;;;10.65;53.16
6136;BME280;24008;42.664;23.372;2024-03-08T11:09:29;94866.06;;;11.52;52.30
6136;BME280;24008;42.664;23.372;2024-03-08T11:12:22;94864.38;;;11.43;50.69
6136;BME280;24008;42.664;23.372;2024-03-08T11:14:51;94854.44;;;11.40;50.64
6136;BME280;24008;42.664;23.372;2024-03-08T11:17:25;94855.75;;;11.44;50.13
6136;BME280;24008;42.664;23.372;2024-03-08T11:19:55;94859.22;;;10.89;51.21
6136;BME280;24008;42.664;23.372;2024-03-08T11:22:23;94853.41;;;10.50;52.43
6136;BME280;24008;42.664;23.372;2024-03-08T11:24:52;94855.16;;;10.10;53.77
6136;BME280;24008;42.664;23.372;2024-03-08T11:27:19;94849.88;;;10.02;54.45
6136;BME280;24008;42.664;23.372;2024-03-08T11:29:59;94852.59;;;10.39;53.32
6136;BME280;24008;42.664;23.372;2024-03-08T11:32:35;94852.88;;;10.36;53.47
6136;BME280;24008;42.664;23.372;2024-03-08T11:35:06;94849.59;;;10.63;52.58
6136;BME280;24008;42.664;23.372;2024-03-08T11:37:34;94841.91;;;11.10;52.21
6136;BME280;24008;42.664;23.372;2024-03-08T11:40:01;94842.56;;;11.39;51.16
6136;BME280;24008;42.664;23.372;2024-03-08T11:42:30;94844.16;;;11.68;50.13
6136;BME280;24008;42.664;23.372;2024-03-08T11:44:57;94837.91;;;11.52;50.61
6136;BME280;24008;42.664;23.372;2024-03-08T11:47:24;94791.22;;;10.96;51.50
6136;BME280;24008;42.664;23.372;2024-03-08T11:49:53;94817.16;;;11.01;52.70
6136;BME280;24008;42.664;23.372;2024-03-08T11:52:19;94838.13;;;11.14;52.20
6136;BME280;24008;42.664;23.372;2024-03-08T11:54:53;94837.06;;;11.07;52.46
6136;BME280;24008;42.664;23.372;2024-03-08T11:57:22;94838.13;;;10.77;51.38
6136;BME280;24008;42.664;23.372;2024-03-08T11:59:50;94833.66;;;10.32;51.57
6136;BME280;24008;42.664;23.372;2024-03-08T12:02:17;94842.63;;;10.07;53.05
6136;BME280;24008;42.664;23.372;2024-03-08T12:04:44;94832.72;;;10.14;53.93
6136;BME280;24008;42.664;23.372;2024-03-08T12:07:13;94832.16;;;10.30;54.13
6136;BME280;24008;42.664;23.372;2024-03-08T12:09:44;94807.69;;;10.08;51.62
6136;BME280;24008;42.664;23.372;2024-03-08T12:12:12;94830.81;;;9.97;53.31
6136;BME280;24008;42.664;23.372;2024-03-08T12:14:43;94875.53;;;9.62;53.06
6136;BME280;24008;42.664;23.372;2024-03-08T12:17:10;94580.97;;;7.90;54.05
6136;BME280;24008;42.664;23.372;2024-03-08T12:19:37;94801.31;;;9.25;53.42
6136;BME280;24008;42.664;23.372;2024-03-08T12:22:09;94820.66;;;9.28;54.08
6136;BME280;24008;42.664;23.372;2024-03-08T12:24:37;94723.56;;;8.51;55.28
6136;BME280;24008;42.664;23.372;2024-03-08T12:27:17;94819.03;;;8.87;54.97
6136;BME280;24008;42.664;23.372;2024-03-08T12:29:44;94749.25;;;8.38;56.90
6136;BME280;24008;42.664;23.372;2024-03-08T12:32:12;94823.69;;;9.02;57.41
6136;BME280;24008;42.664;23.372;2024-03-08T12:34:39;94821.84;;;9.14;57.45
6136;BME280;24008;42.664;23.372;2024-03-08T12:37:06;94815.69;;;9.26;56.80
6136;BME280;24008;42.664;23.372;2024-03-08T12:39:40;94802.81;;;9.37;55.96
6136;BME280;24008;42.664;23.372;2024-03-08T12:42:07;94811.97;;;9.40;54.81
6136;BME280;24008;42.664;23.372;2024-03-08T12:44:34;94786.69;;;9.27;54.52
6136;BME280;24008;42.664;23.372;2024-03-08T12:47:00;94776.44;;;9.08;53.78
6136;BME280;24008;42.664;23.372;2024-03-08T12:49:27;94815.44;;;9.29;53.89
6136;BME280;24008;42.664;23.372;2024-03-08T12:51:55;94806.81;;;9.21;55.48
6136;BME280;24008;42.664;23.372;2024-03-08T12:54:22;94805.50;;;9.26;55.26
6136;BME280;24008;42.664;23.372;2024-03-08T12:56:51;94770.75;;;8.95;55.40
6136;BME280;24008;42.664;23.372;2024-03-08T12:59:19;94714.31;;;8.50;55.33
6136;BME280;24008;42.664;23.372;2024-03-08T13:01:47;94730.88;;;8.75;55.20
6136;BME280;24008;42.664;23.372;2024-03-08T13:04:14;94798.53;;;9.28;54.90
6136;BME280;24008;42.664;23.372;2024-03-08T13:06:40;94629.09;;;7.93;54.09
6136;BME280;24008;42.664;23.372;2024-03-08T13:09:07;94808.75;;;8.98;55.55
6136;BME280;24008;42.664;23.372;2024-03-08T13:11:34;94811.06;;;9.01;54.59